sensor_id;sensor_type;location;lat;lon;timestamp;P1;durP1;ratioP1;P2;durP2;ratioP2
12135;SDS011;6131;56.420;15.548;2023-04-21T00:00:59;3.80;;;2.53;;
12135;SDS011;6131;56.420;15.548;2023-04-21T00:03:26;3.67;;;2.60;;
12135;SDS011;6131;56.420;15.548;2023-04-21T00:05:56;5.30;;;2.73;;
12135;SDS011;6131;56.420;15.548;2023-04-21T00:08:23;3.30;;;2.50;;
12135;SDS011;6131;56.420;15.548;2023-04-21T00:10:50;5.13;;;2.80;;
12135;SDS011;6131;56.420;15.548;2023-04-21T00:13:16;4.33;;;2.60;;
12135;SDS011;6131;56.420;15.548;2023-04-21T00:15:42;3.80;;;2.50;;
12135;SDS011;6131;56.420;15.548;2023-04-21T00:18:08;3.70;;;2.87;;
12135;SDS011;6131;56.420;15.548;2023-04-21T00:20:34;2.87;;;2.40;;
12135;SDS011;6131;56.420;15.548;2023-04-21T00:23:01;2.87;;;2.47;;
12135;SDS011;6131;56.420;15.548;2023-04-21T00:25:27;6.20;;;3.00;;
12135;SDS011;6131;56.420;15.548;2023-04-21T00:27:53;3.03;;;2.60;;
12135;SDS011;6131;56.420;15.548;2023-04-21T00:30:19;3.47;;;2.53;;
12135;SDS011;6131;56.420;15.548;2023-04-21T00:32:45;4.03;;;2.87;;
12135;SDS011;6131;56.420;15.548;2023-04-21T00:35:12;4.33;;;3.17;;
12135;SDS011;6131;56.420;15.548;2023-04-21T00:37:38;4.57;;;2.90;;
12135;SDS011;6131;56.420;15.548;2023-04-21T00:40:04;4.37;;;2.60;;
12135;SDS011;6131;56.420;15.548;2023-04-21T00:42:31;3.17;;;2.60;;
12135;SDS011;6131;56.420;15.548;2023-04-21T00:44:57;3.37;;;2.40;;
12135;SDS011;6131;56.420;15.548;2023-04-21T00:47:23;3.10;;;2.30;;
12135;SDS011;6131;56.420;15.548;2023-04-21T00:49:49;4.73;;;2.67;;
12135;SDS011;6131;56.420;15.548;2023-04-21T00:52:16;3.37;;;2.33;;
12135;SDS011;6131;56.420;15.548;2023-04-21T00:54:42;3.20;;;2.50;;
12135;SDS011;6131;56.420;15.548;2023-04-21T01:00:11;3.83;;;2.53;;
12135;SDS011;6131;56.420;15.548;2023-04-21T01:02:38;3.70;;;2.67;;
12135;SDS011;6131;56.420;15.548;2023-04-21T01:05:05;3.27;;;2.53;;
12135;SDS011;6131;56.420;15.548;2023-04-21T01:07:33;3.93;;;2.90;;
12135;SDS011;6131;56.420;15.548;2023-04-21T01:09:59;4.10;;;2.63;;
12135;SDS011;6131;56.420;15.548;2023-04-21T01:12:25;4.07;;;2.70;;
12135;SDS011;6131;56.420;15.548;2023-04-21T01:14:51;4.27;;;2.50;;
12135;SDS011;6131;56.420;15.548;2023-04-21T01:17:18;3.10;;;2.60;;
12135;SDS011;6131;56.420;15.548;2023-04-21T01:19:44;3.53;;;2.50;;
12135;SDS011;6131;56.420;15.548;2023-04-21T01:22:13;4.60;;;2.27;;
12135;SDS011;6131;56.420;15.548;2023-04-21T01:24:44;3.87;;;2.70;;
12135;SDS011;6131;56.420;15.548;2023-04-21T01:27:12;4.83;;;2.67;;
12135;SDS011;6131;56.420;15.548;2023-04-21T01:29:39;3.63;;;2.63;;
12135;SDS011;6131;56.420;15.548;2023-04-21T01:32:12;4.87;;;3.07;;
12135;SDS011;6131;56.420;15.548;2023-04-21T01:34:39;3.43;;;2.77;;
12135;SDS011;6131;56.420;15.548;2023-04-21T01:37:06;3.57;;;2.80;;
12135;SDS011;6131;56.420;15.548;2023-04-21T01:39:33;4.87;;;2.60;;
12135;SDS011;6131;56.420;15.548;2023-04-21T01:41:59;3.77;;;2.63;;
12135;SDS011;6131;56.420;15.548;2023-04-21T01:44:25;5.13;;;2.90;;
12135;SDS011;6131;56.420;15.548;2023-04-21T01:46:51;4.00;;;2.90;;
12135;SDS011;6131;56.420;15.548;2023-04-21T01:49:18;6.33;;;2.83;;
12135;SDS011;6131;56.420;15.548;2023-04-21T01:51:44;4.17;;;2.70;;
12135;SDS011;6131;56.420;15.548;2023-04-21T01:54:10;2.80;;;2.50;;
12135;SDS011;6131;56.420;15.548;2023-04-21T01:56:36;4.10;;;2.90;;
12135;SDS011;6131;56.420;15.548;2023-04-21T01:59:11;3.53;;;2.57;;
12135;SDS011;6131;56.420;15.548;2023-04-21T02:01:37;3.00;;;2.70;;
12135;SDS011;6131;56.420;15.548;2023-04-21T02:04:04;5.57;;;2.80;;
12135;SDS011;6131;56.420;15.548;2023-04-21T02:06:30;3.57;;;2.90;;
12135;SDS011;6131;56.420;15.548;2023-04-21T02:09:03;3.90;;;2.70;;
12135;SDS011;6131;56.420;15.548;2023-04-21T02:11:29;3.13;;;2.30;;
12135;SDS011;6131;56.420;15.548;2023-04-21T02:13:55;4.57;;;2.67;;
12135;SDS011;6131;56.420;15.548;2023-04-21T02:16:21;5.07;;;2.90;;
12135;SDS011;6131;56.420;15.548;2023-04-21T02:18:53;3.20;;;2.50;;
12135;SDS011;6131;56.420;15.548;2023-04-21T02:21:20;5.17;;;3.10;;
12135;SDS011;6131;56.420;15.548;2023-04-21T02:23:46;3.60;;;2.83;;
12135;SDS011;6131;56.420;15.548;2023-04-21T02:26:12;4.17;;;3.07;;
12135;SDS011;6131;56.420;15.548;2023-04-21T02:28:38;3.80;;;3.13;;
12135;SDS011;6131;56.420;15.548;2023-04-21T02:31:04;3.33;;;2.80;;
12135;SDS011;6131;56.420;15.548;2023-04-21T02:33:31;3.67;;;2.70;;
12135;SDS011;6131;56.420;15.548;2023-04-21T02:35:57;4.77;;;2.97;;
12135;SDS011;6131;56.420;15.548;2023-04-21T02:38:23;4.03;;;2.80;;
12135;SDS011;6131;56.420;15.548;2023-04-21T02:40:49;3.83;;;2.97;;
12135;SDS011;6131;56.420;15.548;2023-04-21T02:43:15;5.40;;;2.63;;
12135;SDS011;6131;56.420;15.548;2023-04-21T02:45:41;3.53;;;2.70;;
12135;SDS011;6131;56.420;15.548;2023-04-21T02:48:07;2.83;;;2.53;;
12135;SDS011;6131;56.420;15.548;2023-04-21T02:50:33;6.07;;;2.80;;
12135;SDS011;6131;56.420;15.548;2023-04-21T02:52:59;3.70;;;2.63;;
12135;SDS011;6131;56.420;15.548;2023-04-21T02:55:25;4.57;;;2.87;;
12135;SDS011;6131;56.420;15.548;2023-04-21T02:57:51;3.70;;;2.67;;
12135;SDS011;6131;56.420;15.548;2023-04-21T03:00:17;3.87;;;2.80;;
12135;SDS011;6131;56.420;15.548;2023-04-21T03:02:44;3.80;;;2.87;;
12135;SDS011;6131;56.420;15.548;2023-04-21T03:05:10;3.20;;;2.50;;
12135;SDS011;6131;56.420;15.548;2023-04-21T03:07:36;3.73;;;2.47;;
12135;SDS011;6131;56.420;15.548;2023-04-21T03:10:03;3.27;;;2.73;;
12135;SDS011;6131;56.420;15.548;2023-04-21T03:12:30;6.53;;;3.10;;
12135;SDS011;6131;56.420;15.548;2023-04-21T03:14:56;3.63;;;2.90;;
12135;SDS011;6131;56.420;15.548;2023-04-21T03:17:22;4.23;;;2.63;;
12135;SDS011;6131;56.420;15.548;2023-04-21T03:19:48;4.30;;;2.70;;
12135;SDS011;6131;56.420;15.548;2023-04-21T03:22:14;5.67;;;3.07;;
12135;SDS011;6131;56.420;15.548;2023-04-21T03:24:40;3.93;;;2.70;;
12135;SDS011;6131;56.420;15.548;2023-04-21T03:27:06;3.83;;;2.50;;
12135;SDS011;6131;56.420;15.548;2023-04-21T03:29:34;5.80;;;2.87;;
12135;SDS011;6131;56.420;15.548;2023-04-21T03:32:00;3.13;;;2.70;;
12135;SDS011;6131;56.420;15.548;2023-04-21T03:34:26;3.67;;;2.80;;
12135;SDS011;6131;56.420;15.548;2023-04-21T03:36:52;3.57;;;2.60;;
12135;SDS011;6131;56.420;15.548;2023-04-21T03:39:19;3.80;;;2.90;;
12135;SDS011;6131;56.420;15.548;2023-04-21T03:41:45;3.40;;;2.63;;
12135;SDS011;6131;56.420;15.548;2023-04-21T03:44:12;5.83;;;3.30;;
12135;SDS011;6131;56.420;15.548;2023-04-21T03:46:38;3.20;;;2.70;;
12135;SDS011;6131;56.420;15.548;2023-04-21T03:49:04;4.10;;;2.90;;
12135;SDS011;6131;56.420;15.548;2023-04-21T03:51:30;6.13;;;3.13;;
12135;SDS011;6131;56.420;15.548;2023-04-21T03:53:56;4.80;;;3.20;;
12135;SDS011;6131;56.420;15.548;2023-04-21T03:56:23;4.17;;;3.37;;
12135;SDS011;6131;56.420;15.548;2023-04-21T03:58:49;4.83;;;2.77;;
12135;SDS011;6131;56.420;15.548;2023-04-21T04:01:15;4.13;;;2.73;;
12135;SDS011;6131;56.420;15.548;2023-04-21T04:03:41;4.43;;;2.90;;
12135;SDS011;6131;56.420;15.548;2023-04-21T04:06:07;4.90;;;3.20;;
12135;SDS011;6131;56.420;15.548;2023-04-21T04:08:33;4.77;;;2.80;;
12135;SDS011;6131;56.420;15.548;2023-04-21T04:10:59;3.47;;;2.90;;
12135;SDS011;6131;56.420;15.548;2023-04-21T04:13:25;5.20;;;2.90;;
12135;SDS011;6131;56.420;15.548;2023-04-21T04:15:52;3.07;;;2.60;;
12135;SDS011;6131;56.420;15.548;2023-04-21T04:18:19;3.77;;;2.80;;
12135;SDS011;6131;56.420;15.548;2023-04-21T04:20:45;3.03;;;2.73;;
12135;SDS011;6131;56.420;15.548;2023-04-21T04:23:11;7.23;;;3.07;;
12135;SDS011;6131;56.420;15.548;2023-04-21T04:25:36;3.33;;;2.70;;
12135;SDS011;6131;56.420;15.548;2023-04-21T04:28:03;3.93;;;2.73;;
12135;SDS011;6131;56.420;15.548;2023-04-21T04:30:29;2.80;;;2.50;;
12135;SDS011;6131;56.420;15.548;2023-04-21T04:32:57;4.70;;;2.57;;
12135;SDS011;6131;56.420;15.548;2023-04-21T04:35:23;4.37;;;2.77;;
12135;SDS011;6131;56.420;15.548;2023-04-21T04:37:49;4.27;;;2.70;;
12135;SDS011;6131;56.420;15.548;2023-04-21T04:40:16;3.50;;;2.67;;
12135;SDS011;6131;56.420;15.548;2023-04-21T04:42:42;6.67;;;2.63;;
12135;SDS011;6131;56.420;15.548;2023-04-21T04:45:09;3.37;;;2.50;;
12135;SDS011;6131;56.420;15.548;2023-04-21T04:47:38;3.57;;;2.50;;
12135;SDS011;6131;56.420;15.548;2023-04-21T04:50:04;3.73;;;2.60;;
12135;SDS011;6131;56.420;15.548;2023-04-21T04:52:31;3.87;;;2.57;;
12135;SDS011;6131;56.420;15.548;2023-04-21T04:54:57;4.27;;;2.50;;
12135;SDS011;6131;56.420;15.548;2023-04-21T04:57:23;4.73;;;2.90;;
12135;SDS011;6131;56.420;15.548;2023-04-21T04:59:53;3.43;;;2.63;;
12135;SDS011;6131;56.420;15.548;2023-04-21T05:02:19;3.40;;;2.83;;
12135;SDS011;6131;56.420;15.548;2023-04-21T05:04:46;4.80;;;2.80;;
12135;SDS011;6131;56.420;15.548;2023-04-21T05:07:12;4.03;;;3.03;;
12135;SDS011;6131;56.420;15.548;2023-04-21T05:09:39;3.50;;;2.70;;
12135;SDS011;6131;56.420;15.548;2023-04-21T05:12:05;3.23;;;2.60;;
12135;SDS011;6131;56.420;15.548;2023-04-21T05:14:31;3.93;;;3.03;;
12135;SDS011;6131;56.420;15.548;2023-04-21T05:16:57;3.23;;;2.70;;
12135;SDS011;6131;56.420;15.548;2023-04-21T05:19:23;4.93;;;2.60;;
12135;SDS011;6131;56.420;15.548;2023-04-21T05:21:50;3.00;;;2.70;;
12135;SDS011;6131;56.420;15.548;2023-04-21T05:24:17;4.07;;;2.70;;
12135;SDS011;6131;56.420;15.548;2023-04-21T05:26:47;4.03;;;2.80;;
12135;SDS011;6131;56.420;15.548;2023-04-21T05:29:13;5.60;;;2.63;;
12135;SDS011;6131;56.420;15.548;2023-04-21T05:31:39;6.23;;;3.10;;
12135;SDS011;6131;56.420;15.548;2023-04-21T05:34:05;3.40;;;2.47;;
12135;SDS011;6131;56.420;15.548;2023-04-21T05:36:31;3.00;;;2.50;;
12135;SDS011;6131;56.420;15.548;2023-04-21T05:38:57;3.70;;;2.80;;
12135;SDS011;6131;56.420;15.548;2023-04-21T05:41:23;7.17;;;2.57;;
12135;SDS011;6131;56.420;15.548;2023-04-21T05:43:50;2.70;;;2.30;;
12135;SDS011;6131;56.420;15.548;2023-04-21T05:46:16;3.63;;;2.17;;
12135;SDS011;6131;56.420;15.548;2023-04-21T05:48:42;3.07;;;2.17;;
12135;SDS011;6131;56.420;15.548;2023-04-21T05:51:08;2.10;;;1.90;;
12135;SDS011;6131;56.420;15.548;2023-04-21T05:53:39;3.60;;;1.90;;
12135;SDS011;6131;56.420;15.548;2023-04-21T05:56:07;2.33;;;1.97;;
12135;SDS011;6131;56.420;15.548;2023-04-21T05:58:33;2.73;;;1.80;;
12135;SDS011;6131;56.420;15.548;2023-04-21T06:01:00;1.87;;;1.60;;
12135;SDS011;6131;56.420;15.548;2023-04-21T06:03:26;4.73;;;2.10;;
12135;SDS011;6131;56.420;15.548;2023-04-21T06:05:55;3.77;;;1.80;;
12135;SDS011;6131;56.420;15.548;2023-04-21T06:08:21;3.67;;;1.73;;
12135;SDS011;6131;56.420;15.548;2023-04-21T06:10:47;1.73;;;1.60;;
12135;SDS011;6131;56.420;15.548;2023-04-21T06:13:13;2.57;;;1.70;;
12135;SDS011;6131;56.420;15.548;2023-04-21T06:15:39;1.57;;;1.40;;
12135;SDS011;6131;56.420;15.548;2023-04-21T06:18:05;2.20;;;1.70;;
12135;SDS011;6131;56.420;15.548;2023-04-21T06:20:31;2.13;;;1.80;;
12135;SDS011;6131;56.420;15.548;2023-04-21T06:22:57;2.97;;;1.77;;
12135;SDS011;6131;56.420;15.548;2023-04-21T06:25:23;2.07;;;1.50;;
12135;SDS011;6131;56.420;15.548;2023-04-21T06:27:49;2.10;;;1.30;;
12135;SDS011;6131;56.420;15.548;2023-04-21T06:30:15;1.60;;;1.27;;
12135;SDS011;6131;56.420;15.548;2023-04-21T06:32:41;2.50;;;1.33;;
12135;SDS011;6131;56.420;15.548;2023-04-21T06:35:10;2.87;;;1.33;;
12135;SDS011;6131;56.420;15.548;2023-04-21T06:37:36;1.40;;;1.30;;
12135;SDS011;6131;56.420;15.548;2023-04-21T06:40:02;2.33;;;1.50;;
12135;SDS011;6131;56.420;15.548;2023-04-21T06:42:28;3.30;;;1.37;;
12135;SDS011;6131;56.420;15.548;2023-04-21T06:44:54;1.87;;;1.50;;
12135;SDS011;6131;56.420;15.548;2023-04-21T06:47:20;3.23;;;1.40;;
12135;SDS011;6131;56.420;15.548;2023-04-21T06:49:46;1.87;;;1.20;;
12135;SDS011;6131;56.420;15.548;2023-04-21T06:52:12;2.13;;;1.53;;
12135;SDS011;6131;56.420;15.548;2023-04-21T06:54:38;2.43;;;1.37;;
12135;SDS011;6131;56.420;15.548;2023-04-21T06:57:05;2.40;;;1.50;;
12135;SDS011;6131;56.420;15.548;2023-04-21T06:59:31;1.83;;;1.37;;
12135;SDS011;6131;56.420;15.548;2023-04-21T07:01:58;3.67;;;1.50;;
12135;SDS011;6131;56.420;15.548;2023-04-21T07:04:24;2.27;;;1.53;;
12135;SDS011;6131;56.420;15.548;2023-04-21T07:06:54;1.80;;;1.27;;
12135;SDS011;6131;56.420;15.548;2023-04-21T07:09:20;2.57;;;1.70;;
12135;SDS011;6131;56.420;15.548;2023-04-21T07:11:46;2.37;;;1.60;;
12135;SDS011;6131;56.420;15.548;2023-04-21T07:14:12;3.23;;;1.53;;
12135;SDS011;6131;56.420;15.548;2023-04-21T07:16:38;3.37;;;1.40;;
12135;SDS011;6131;56.420;15.548;2023-04-21T07:19:05;2.47;;;1.50;;
12135;SDS011;6131;56.420;15.548;2023-04-21T07:21:31;2.13;;;1.63;;
12135;SDS011;6131;56.420;15.548;2023-04-21T07:24:00;3.30;;;1.40;;
12135;SDS011;6131;56.420;15.548;2023-04-21T07:26:26;2.47;;;1.87;;
12135;SDS011;6131;56.420;15.548;2023-04-21T07:28:52;2.40;;;1.60;;
12135;SDS011;6131;56.420;15.548;2023-04-21T07:31:19;2.67;;;1.60;;
12135;SDS011;6131;56.420;15.548;2023-04-21T07:33:45;3.33;;;1.73;;
12135;SDS011;6131;56.420;15.548;2023-04-21T07:36:11;2.47;;;1.60;;
12135;SDS011;6131;56.420;15.548;2023-04-21T07:38:37;2.60;;;1.67;;
12135;SDS011;6131;56.420;15.548;2023-04-21T07:41:07;2.10;;;1.47;;
12135;SDS011;6131;56.420;15.548;2023-04-21T07:43:33;2.33;;;1.40;;
12135;SDS011;6131;56.420;15.548;2023-04-21T07:45:59;1.87;;;1.60;;
12135;SDS011;6131;56.420;15.548;2023-04-21T07:48:25;2.53;;;1.37;;
12135;SDS011;6131;56.420;15.548;2023-04-21T07:50:51;1.60;;;1.20;;
12135;SDS011;6131;56.420;15.548;2023-04-21T07:53:17;1.97;;;1.53;;
12135;SDS011;6131;56.420;15.548;2023-04-21T07:55:43;2.13;;;1.43;;
12135;SDS011;6131;56.420;15.548;2023-04-21T07:58:09;1.77;;;1.30;;
12135;SDS011;6131;56.420;15.548;2023-04-21T08:00:35;3.40;;;1.50;;
12135;SDS011;6131;56.420;15.548;2023-04-21T08:03:01;1.60;;;1.40;;
12135;SDS011;6131;56.420;15.548;2023-04-21T08:05:27;2.17;;;1.40;;
12135;SDS011;6131;56.420;15.548;2023-04-21T08:07:54;2.57;;;1.40;;
12135;SDS011;6131;56.420;15.548;2023-04-21T08:10:20;2.20;;;1.27;;
12135;SDS011;6131;56.420;15.548;2023-04-21T08:12:46;1.70;;;1.30;;
12135;SDS011;6131;56.420;15.548;2023-04-21T08:15:12;2.90;;;1.40;;
12135;SDS011;6131;56.420;15.548;2023-04-21T08:17:38;2.60;;;1.40;;
12135;SDS011;6131;56.420;15.548;2023-04-21T08:20:04;1.90;;;1.43;;
12135;SDS011;6131;56.420;15.548;2023-04-21T08:22:30;1.97;;;1.33;;
12135;SDS011;6131;56.420;15.548;2023-04-21T08:24:56;1.50;;;1.30;;
12135;SDS011;6131;56.420;15.548;2023-04-21T08:27:22;2.77;;;1.30;;
12135;SDS011;6131;56.420;15.548;2023-04-21T08:29:48;1.93;;;1.33;;
12135;SDS011;6131;56.420;15.548;2023-04-21T08:32:14;3.13;;;1.23;;
12135;SDS011;6131;56.420;15.548;2023-04-21T08:34:46;1.50;;;1.37;;
12135;SDS011;6131;56.420;15.548;2023-04-21T08:37:13;1.87;;;1.37;;
12135;SDS011;6131;56.420;15.548;2023-04-21T08:39:39;1.67;;;1.27;;
12135;SDS011;6131;56.420;15.548;2023-04-21T08:42:05;3.10;;;1.33;;
12135;SDS011;6131;56.420;15.548;2023-04-21T08:44:31;1.90;;;1.37;;
12135;SDS011;6131;56.420;15.548;2023-04-21T08:46:57;2.30;;;1.43;;
12135;SDS011;6131;56.420;15.548;2023-04-21T08:49:24;1.77;;;1.20;;
12135;SDS011;6131;56.420;15.548;2023-04-21T08:51:51;2.90;;;1.40;;
12135;SDS011;6131;56.420;15.548;2023-04-21T08:54:17;2.97;;;1.40;;
12135;SDS011;6131;56.420;15.548;2023-04-21T08:56:43;1.30;;;1.07;;
12135;SDS011;6131;56.420;15.548;2023-04-21T08:59:09;1.30;;;1.20;;
12135;SDS011;6131;56.420;15.548;2023-04-21T09:04:20;3.17;;;1.30;;
12135;SDS011;6131;56.420;15.548;2023-04-21T09:06:46;2.07;;;1.20;;
12135;SDS011;6131;56.420;15.548;2023-04-21T09:09:12;1.47;;;1.20;;
12135;SDS011;6131;56.420;15.548;2023-04-21T09:11:38;1.70;;;1.20;;
12135;SDS011;6131;56.420;15.548;2023-04-21T09:14:04;4.90;;;1.20;;
12135;SDS011;6131;56.420;15.548;2023-04-21T09:16:30;1.60;;;1.30;;
12135;SDS011;6131;56.420;15.548;2023-04-21T09:19:00;1.80;;;1.10;;
12135;SDS011;6131;56.420;15.548;2023-04-21T09:21:26;1.27;;;1.17;;
12135;SDS011;6131;56.420;15.548;2023-04-21T09:23:52;1.43;;;1.20;;
12135;SDS011;6131;56.420;15.548;2023-04-21T09:26:20;1.73;;;1.10;;
12135;SDS011;6131;56.420;15.548;2023-04-21T09:28:50;1.80;;;1.40;;
12135;SDS011;6131;56.420;15.548;2023-04-21T09:31:17;1.43;;;1.20;;
12135;SDS011;6131;56.420;15.548;2023-04-21T09:33:47;1.90;;;1.00;;
12135;SDS011;6131;56.420;15.548;2023-04-21T09:36:17;3.17;;;1.00;;
12135;SDS011;6131;56.420;15.548;2023-04-21T09:41:20;2.07;;;0.90;;
12135;SDS011;6131;56.420;15.548;2023-04-21T09:43:46;1.80;;;1.10;;
12135;SDS011;6131;56.420;15.548;2023-04-21T09:46:14;1.57;;;1.03;;
12135;SDS011;6131;56.420;15.548;2023-04-21T09:48:42;2.50;;;1.00;;
12135;SDS011;6131;56.420;15.548;2023-04-21T09:51:09;1.73;;;1.10;;
12135;SDS011;6131;56.420;15.548;2023-04-21T09:53:36;4.17;;;1.07;;
12135;SDS011;6131;56.420;15.548;2023-04-21T09:56:03;1.30;;;1.10;;
12135;SDS011;6131;56.420;15.548;2023-04-21T09:58:32;1.10;;;1.00;;
12135;SDS011;6131;56.420;15.548;2023-04-21T10:01:00;0.83;;;0.83;;
12135;SDS011;6131;56.420;15.548;2023-04-21T10:03:28;1.07;;;0.90;;
12135;SDS011;6131;56.420;15.548;2023-04-21T10:05:55;1.00;;;0.90;;
12135;SDS011;6131;56.420;15.548;2023-04-21T10:08:21;2.20;;;1.10;;
12135;SDS011;6131;56.420;15.548;2023-04-21T10:10:47;2.33;;;1.10;;
12135;SDS011;6131;56.420;15.548;2023-04-21T10:13:14;1.30;;;1.07;;
12135;SDS011;6131;56.420;15.548;2023-04-21T10:15:42;1.27;;;1.00;;
12135;SDS011;6131;56.420;15.548;2023-04-21T10:18:18;1.37;;;1.00;;
12135;SDS011;6131;56.420;15.548;2023-04-21T10:25:53;1.30;;;1.00;;
12135;SDS011;6131;56.420;15.548;2023-04-21T10:28:19;1.70;;;0.90;;
12135;SDS011;6131;56.420;15.548;2023-04-21T10:30:45;1.10;;;0.97;;
12135;SDS011;6131;56.420;15.548;2023-04-21T10:33:11;1.20;;;0.80;;
12135;SDS011;6131;56.420;15.548;2023-04-21T10:38:34;1.37;;;0.90;;
12135;SDS011;6131;56.420;15.548;2023-04-21T10:43:45;1.30;;;1.10;;
12135;SDS011;6131;56.420;15.548;2023-04-21T10:49:03;1.25;;;0.93;;
12135;SDS011;6131;56.420;15.548;2023-04-21T10:51:29;0.82;;;0.80;;
12135;SDS011;6131;56.420;15.548;2023-04-21T10:53:57;0.80;;;0.80;;
12135;SDS011;6131;56.420;15.548;2023-04-21T10:56:23;0.90;;;0.88;;
12135;SDS011;6131;56.420;15.548;2023-04-21T10:58:49;1.50;;;0.80;;
12135;SDS011;6131;56.420;15.548;2023-04-21T11:01:17;1.13;;;0.88;;
12135;SDS011;6131;56.420;15.548;2023-04-21T11:03:43;0.90;;;0.80;;
12135;SDS011;6131;56.420;15.548;2023-04-21T11:06:15;1.17;;;0.70;;
12135;SDS011;6131;56.420;15.548;2023-04-21T11:08:55;1.85;;;1.00;;
12135;SDS011;6131;56.420;15.548;2023-04-21T11:11:21;1.30;;;1.10;;
12135;SDS011;6131;56.420;15.548;2023-04-21T11:13:48;1.67;;;0.90;;
12135;SDS011;6131;56.420;15.548;2023-04-21T11:16:14;3.38;;;0.90;;
12135;SDS011;6131;56.420;15.548;2023-04-21T11:18:41;1.00;;;0.80;;
12135;SDS011;6131;56.420;15.548;2023-04-21T11:21:08;1.35;;;0.80;;
12135;SDS011;6131;56.420;15.548;2023-04-21T11:23:34;1.23;;;0.95;;
12135;SDS011;6131;56.420;15.548;2023-04-21T11:26:00;1.00;;;0.82;;
12135;SDS011;6131;56.420;15.548;2023-04-21T11:28:26;0.85;;;0.70;;
12135;SDS011;6131;56.420;15.548;2023-04-21T11:30:52;1.20;;;0.70;;
12135;SDS011;6131;56.420;15.548;2023-04-21T11:33:18;2.05;;;0.73;;
12135;SDS011;6131;56.420;15.548;2023-04-21T11:35:44;1.05;;;0.63;;
12135;SDS011;6131;56.420;15.548;2023-04-21T11:38:10;0.80;;;0.80;;
12135;SDS011;6131;56.420;15.548;2023-04-21T11:40:45;2.15;;;0.90;;
12135;SDS011;6131;56.420;15.548;2023-04-21T11:43:11;1.48;;;0.70;;
12135;SDS011;6131;56.420;15.548;2023-04-21T11:45:39;1.38;;;0.90;;
12135;SDS011;6131;56.420;15.548;2023-04-21T11:48:15;0.90;;;0.77;;
12135;SDS011;6131;56.420;15.548;2023-04-21T11:50:50;0.90;;;0.77;;
12135;SDS011;6131;56.420;15.548;2023-04-21T11:53:16;1.73;;;0.88;;
12135;SDS011;6131;56.420;15.548;2023-04-21T11:55:46;1.27;;;0.90;;
12135;SDS011;6131;56.420;15.548;2023-04-21T11:58:12;1.40;;;0.85;;
12135;SDS011;6131;56.420;15.548;2023-04-21T12:00:43;0.90;;;0.80;;
12135;SDS011;6131;56.420;15.548;2023-04-21T12:03:09;1.15;;;0.80;;
12135;SDS011;6131;56.420;15.548;2023-04-21T12:05:37;1.75;;;0.80;;
12135;SDS011;6131;56.420;15.548;2023-04-21T12:08:03;3.42;;;0.63;;
12135;SDS011;6131;56.420;15.548;2023-04-21T12:10:32;1.23;;;0.80;;
12135;SDS011;6131;56.420;15.548;2023-04-21T12:12:58;2.72;;;0.77;;
12135;SDS011;6131;56.420;15.548;2023-04-21T12:15:24;1.13;;;0.80;;
12135;SDS011;6131;56.420;15.548;2023-04-21T12:17:53;1.80;;;0.82;;
12135;SDS011;6131;56.420;15.548;2023-04-21T12:20:23;1.50;;;0.70;;
12135;SDS011;6131;56.420;15.548;2023-04-21T12:22:50;1.23;;;0.60;;
12135;SDS011;6131;56.420;15.548;2023-04-21T12:25:17;1.75;;;0.70;;
12135;SDS011;6131;56.420;15.548;2023-04-21T12:27:47;0.80;;;0.73;;
12135;SDS011;6131;56.420;15.548;2023-04-21T12:30:13;0.80;;;0.60;;
12135;SDS011;6131;56.420;15.548;2023-04-21T12:32:39;0.95;;;0.60;;
12135;SDS011;6131;56.420;15.548;2023-04-21T12:35:05;0.93;;;0.73;;
12135;SDS011;6131;56.420;15.548;2023-04-21T12:37:31;1.13;;;0.80;;
12135;SDS011;6131;56.420;15.548;2023-04-21T12:39:57;0.73;;;0.60;;
12135;SDS011;6131;56.420;15.548;2023-04-21T12:42:23;0.95;;;0.75;;
12135;SDS011;6131;56.420;15.548;2023-04-21T12:44:49;0.60;;;0.55;;
12135;SDS011;6131;56.420;15.548;2023-04-21T12:47:15;0.75;;;0.60;;
12135;SDS011;6131;56.420;15.548;2023-04-21T12:49:41;0.75;;;0.50;;
12135;SDS011;6131;56.420;15.548;2023-04-21T12:52:07;0.70;;;0.50;;
12135;SDS011;6131;56.420;15.548;2023-04-21T12:54:33;1.10;;;0.57;;
12135;SDS011;6131;56.420;15.548;2023-04-21T12:57:00;1.75;;;0.60;;
12135;SDS011;6131;56.420;15.548;2023-04-21T12:59:26;1.27;;;0.70;;
12135;SDS011;6131;56.420;15.548;2023-04-21T13:01:52;0.70;;;0.50;;
12135;SDS011;6131;56.420;15.548;2023-04-21T13:04:18;1.45;;;0.60;;
12135;SDS011;6131;56.420;15.548;2023-04-21T13:06:44;0.73;;;0.50;;
12135;SDS011;6131;56.420;15.548;2023-04-21T13:09:10;0.68;;;0.52;;
12135;SDS011;6131;56.420;15.548;2023-04-21T13:11:36;0.90;;;0.52;;
12135;SDS011;6131;56.420;15.548;2023-04-21T13:14:02;0.70;;;0.40;;
12135;SDS011;6131;56.420;15.548;2023-04-21T13:16:28;1.02;;;0.60;;
12135;SDS011;6131;56.420;15.548;2023-04-21T13:18:54;1.25;;;0.50;;
12135;SDS011;6131;56.420;15.548;2023-04-21T13:21:20;0.50;;;0.50;;
12135;SDS011;6131;56.420;15.548;2023-04-21T13:23:46;0.70;;;0.52;;
12135;SDS011;6131;56.420;15.548;2023-04-21T13:26:12;1.63;;;0.60;;
12135;SDS011;6131;56.420;15.548;2023-04-21T13:28:38;1.05;;;0.60;;
12135;SDS011;6131;56.420;15.548;2023-04-21T13:31:04;0.82;;;0.50;;
12135;SDS011;6131;56.420;15.548;2023-04-21T13:33:31;2.35;;;0.60;;
12135;SDS011;6131;56.420;15.548;2023-04-21T13:35:59;0.75;;;0.50;;
12135;SDS011;6131;56.420;15.548;2023-04-21T13:38:25;0.40;;;0.40;;
12135;SDS011;6131;56.420;15.548;2023-04-21T13:40:51;0.93;;;0.50;;
12135;SDS011;6131;56.420;15.548;2023-04-21T13:43:18;1.08;;;0.50;;
12135;SDS011;6131;56.420;15.548;2023-04-21T13:45:44;0.57;;;0.47;;
12135;SDS011;6131;56.420;15.548;2023-04-21T13:48:12;0.90;;;0.50;;
12135;SDS011;6131;56.420;15.548;2023-04-21T13:50:38;1.05;;;0.60;;
12135;SDS011;6131;56.420;15.548;2023-04-21T13:53:04;0.65;;;0.50;;
12135;SDS011;6131;56.420;15.548;2023-04-21T13:55:30;1.05;;;0.57;;
12135;SDS011;6131;56.420;15.548;2023-04-21T13:57:57;0.63;;;0.55;;
12135;SDS011;6131;56.420;15.548;2023-04-21T14:00:24;1.08;;;0.60;;
12135;SDS011;6131;56.420;15.548;2023-04-21T14:02:51;1.98;;;0.55;;
12135;SDS011;6131;56.420;15.548;2023-04-21T14:05:17;0.52;;;0.47;;
12135;SDS011;6131;56.420;15.548;2023-04-21T14:07:43;1.08;;;0.70;;
12135;SDS011;6131;56.420;15.548;2023-04-21T14:10:09;1.00;;;0.60;;
12135;SDS011;6131;56.420;15.548;2023-04-21T14:12:36;2.53;;;0.80;;
12135;SDS011;6131;56.420;15.548;2023-04-21T14:15:03;1.65;;;0.43;;
12135;SDS011;6131;56.420;15.548;2023-04-21T14:17:29;1.67;;;0.60;;
12135;SDS011;6131;56.420;15.548;2023-04-21T14:19:56;0.50;;;0.40;;
12135;SDS011;6131;56.420;15.548;2023-04-21T14:22:22;0.60;;;0.50;;
12135;SDS011;6131;56.420;15.548;2023-04-21T14:24:48;1.38;;;0.50;;
12135;SDS011;6131;56.420;15.548;2023-04-21T14:27:15;0.85;;;0.50;;
12135;SDS011;6131;56.420;15.548;2023-04-21T14:29:41;1.23;;;0.60;;
12135;SDS011;6131;56.420;15.548;2023-04-21T14:32:07;0.85;;;0.52;;
12135;SDS011;6131;56.420;15.548;2023-04-21T14:34:33;4.32;;;0.50;;
12135;SDS011;6131;56.420;15.548;2023-04-21T14:36:59;0.60;;;0.47;;
12135;SDS011;6131;56.420;15.548;2023-04-21T14:39:25;1.02;;;0.60;;
12135;SDS011;6131;56.420;15.548;2023-04-21T14:41:51;1.80;;;0.50;;
12135;SDS011;6131;56.420;15.548;2023-04-21T14:44:17;1.10;;;0.60;;
12135;SDS011;6131;56.420;15.548;2023-04-21T14:46:43;0.80;;;0.60;;
12135;SDS011;6131;56.420;15.548;2023-04-21T14:49:09;1.35;;;1.00;;
12135;SDS011;6131;56.420;15.548;2023-04-21T14:51:36;0.82;;;0.70;;
12135;SDS011;6131;56.420;15.548;2023-04-21T14:54:04;1.30;;;0.80;;
12135;SDS011;6131;56.420;15.548;2023-04-21T14:56:30;1.65;;;0.77;;
12135;SDS011;6131;56.420;15.548;2023-04-21T14:58:56;2.95;;;1.08;;
12135;SDS011;6131;56.420;15.548;2023-04-21T15:01:22;2.58;;;0.85;;
12135;SDS011;6131;56.420;15.548;2023-04-21T15:03:48;1.85;;;0.77;;
12135;SDS011;6131;56.420;15.548;2023-04-21T15:06:14;4.55;;;0.93;;